Mee Memorial Hospital (09CA)
King City, CA
Field Elevation: 334
Lat: 36°12.33N  Long: 121°07.95W
CTAF/Unicom Freq: 120.8000
   
     For Weather-by-Phone, call 831-386-7456
Weather Advisories
2017-04-24   03:22 Z
Altimeter 30.00" Hg
Wind 360° @ 11 KT
Gusts 18 KT
Visibility 10 SM
Ceiling CLR
Temperature 13° C (55° F)
Dewpoint 8° C (46° F)
Relative Humidity 71%
Density Altitude --
Condensation Altitude 2,800 feet
Wind and Runways
Indicated Runway = 27
Headwind = 0 kt
Crosswind = 11 kt
History
 
 
 
More Info
NOAA Forecast
 
 
About Us
Belfort Instrument
 
 
FAA Disclaimer: The data displayed is for advisory purposes only and is not to be used for flight planning or operations. For official data, please call 831-386-7456 to hear the current automated AWOS voice message.
  METAR 09CA 240322Z AUTO 36011G18KT 10 SM CLR 13/08 A3000